createdAt,value
2017-06-14T00:00:07.504Z,12.46
2017-06-14T00:00:49.112Z,12.4
2017-06-14T00:01:29.664Z,12.49
2017-06-14T00:02:10.335Z,12.49
2017-06-14T00:02:51.007Z,12.31
2017-06-14T00:03:31.641Z,12.42
2017-06-14T00:04:13.318Z,12.43
2017-06-14T00:04:54.994Z,12.45
2017-06-14T00:05:35.647Z,12.43
2017-06-14T00:06:16.304Z,12.42
2017-06-14T00:06:56.939Z,12.42
2017-06-14T00:07:37.614Z,12.31
2017-06-14T00:08:18.260Z,12.39
2017-06-14T00:08:58.915Z,12.35
2017-06-14T00:09:41.494Z,12.29
2017-06-14T00:10:26.764Z,12.35
2017-06-14T00:11:09.372Z,12.32
2017-06-14T00:11:50.025Z,12.27
2017-06-14T00:12:32.660Z,12.29
2017-06-14T00:13:13.259Z,12.27
2017-06-14T00:13:53.815Z,12.29
2017-06-14T00:14:41.243Z,12.35
2017-06-14T00:15:21.819Z,12.28
2017-06-14T00:16:03.441Z,12.24
2017-06-14T00:16:44.054Z,12.22
2017-06-14T00:17:26.716Z,12.18
2017-06-14T00:18:07.356Z,12.17
2017-06-14T00:19:03.694Z,12.13
2017-06-14T00:19:44.348Z,12.21
2017-06-14T00:20:29.701Z,12.17
2017-06-14T00:21:10.351Z,12.2
2017-06-14T00:21:51.945Z,12.1
2017-06-14T00:22:37.537Z,12.13
2017-06-14T00:23:18.132Z,12.12
2017-06-14T00:23:58.725Z,12.06
2017-06-14T00:24:44.164Z,12.12
2017-06-14T00:25:24.754Z,12.06
2017-06-14T00:26:05.354Z,12.04
2017-06-14T00:26:45.905Z,12.04
2017-06-14T00:27:26.578Z,11.95
2017-06-14T00:28:08.264Z,11.97
2017-06-14T00:28:48.893Z,11.99
2017-06-14T00:29:29.552Z,11.91
2017-06-14T00:30:10.209Z,11.91
2017-06-14T00:30:50.868Z,11.94
2017-06-14T00:31:31.501Z,12.02
2017-06-14T00:32:16.687Z,11.94
2017-06-14T00:32:57.331Z,11.94
2017-06-14T00:33:38.900Z,11.86
2017-06-14T00:34:19.562Z,11.97
2017-06-14T00:35:02.137Z,11.88
2017-06-14T00:35:47.714Z,11.94
2017-06-14T00:36:29.285Z,11.91
2017-06-14T00:37:09.960Z,11.99
2017-06-14T00:37:55.558Z,11.97
2017-06-14T00:38:36.159Z,11.9
2017-06-14T00:39:16.720Z,11.91
2017-06-14T00:39:58.406Z,11.91
2017-06-14T00:40:40.011Z,11.84
2017-06-14T00:41:20.607Z,11.86
2017-06-14T00:42:01.170Z,11.81
2017-06-14T00:42:41.811Z,11.81
2017-06-14T00:43:22.418Z,11.83
2017-06-14T00:44:08.005Z,11.88
2017-06-14T00:44:48.483Z,11.83
2017-06-14T00:45:30.949Z,11.68
2017-06-14T00:46:11.592Z,11.75
2017-06-14T00:46:52.178Z,11.72
2017-06-14T00:47:32.830Z,11.77
2017-06-14T00:48:13.484Z,11.66
2017-06-14T00:48:56.092Z,11.72
2017-06-14T00:49:36.738Z,11.78
2017-06-14T00:50:28.861Z,11.73
2017-06-14T00:51:10.537Z,11.59
2017-06-14T00:51:51.190Z,11.6
2017-06-14T00:52:31.762Z,11.63
2017-06-14T00:53:12.416Z,11.6
2017-06-14T00:53:53.111Z,11.63
2017-06-14T00:54:33.703Z,11.66
2017-06-14T00:55:14.295Z,11.62
2017-06-14T00:55:55.933Z,11.59
2017-06-14T00:56:48.525Z,11.57
2017-06-14T00:57:29.118Z,11.55
2017-06-14T00:58:09.766Z,11.62
2017-06-14T00:58:52.367Z,11.59
2017-06-14T00:59:33.019Z,11.54
2017-06-14T01:00:14.695Z,11.57
2017-06-14T01:00:59.982Z,11.54
2017-06-14T01:01:41.633Z,11.52
2017-06-14T01:02:22.202Z,11.52
2017-06-14T01:03:02.857Z,11.5
2017-06-14T01:03:43.450Z,11.5
2017-06-14T01:04:24.040Z,11.51
2017-06-14T01:05:04.593Z,11.45
2017-06-14T01:05:45.336Z,11.41
2017-06-14T01:06:25.875Z,11.57
2017-06-14T01:07:08.504Z,11.51
2017-06-14T01:07:49.057Z,11.47
2017-06-14T01:08:30.746Z,11.41
2017-06-14T01:09:12.442Z,11.47
2017-06-14T01:09:53.089Z,11.5
2017-06-14T01:10:33.745Z,11.43
2017-06-14T01:11:14.378Z,11.43
2017-06-14T01:12:01.691Z,11.37
2017-06-14T01:12:42.343Z,11.43
2017-06-14T01:13:24.031Z,11.36
2017-06-14T01:14:04.685Z,11.43
2017-06-14T01:14:45.338Z,11.4
2017-06-14T01:15:26.014Z,11.43
2017-06-14T01:16:11.246Z,11.43
2017-06-14T01:16:51.882Z,11.44
2017-06-14T01:17:33.582Z,11.41
2017-06-14T01:18:16.293Z,11.4
2017-06-14T01:18:56.935Z,11.29
2017-06-14T01:19:39.535Z,11.3
2017-06-14T01:20:20.191Z,11.36
2017-06-14T01:21:02.886Z,11.3
2017-06-14T01:21:43.520Z,11.37
2017-06-14T01:22:25.149Z,11.35
2017-06-14T01:23:05.845Z,11.27
2017-06-14T01:23:46.962Z,11.18
2017-06-14T01:24:28.607Z,11.18
2017-06-14T01:25:10.218Z,11.23
2017-06-14T01:25:50.815Z,11.25
2017-06-14T01:26:31.386Z,11.25
2017-06-14T01:27:13.984Z,11.23
2017-06-14T01:27:54.563Z,11.23
2017-06-14T01:28:35.162Z,11.29
2017-06-14T01:29:15.727Z,11.18
2017-06-14T01:29:56.379Z,11.18
2017-06-14T01:30:36.973Z,11.18
2017-06-14T01:31:22.376Z,11.18
2017-06-14T01:32:02.952Z,11.15
2017-06-14T01:32:43.593Z,11.11
2017-06-14T01:33:24.323Z,11.07
2017-06-14T01:34:05.841Z,11.19
2017-06-14T01:34:47.499Z,11.05
2017-06-14T01:35:28.158Z,11.12
2017-06-14T01:36:08.819Z,11.07
2017-06-14T01:36:50.476Z,11
2017-06-14T01:37:31.157Z,11.07
2017-06-14T01:38:11.773Z,11.04
2017-06-14T01:38:52.353Z,10.97
2017-06-14T01:39:33.012Z,11
2017-06-14T01:40:18.447Z,11.07
2017-06-14T01:40:59.033Z,11
2017-06-14T01:41:40.709Z,11.02
2017-06-14T01:42:21.329Z,11
2017-06-14T01:43:01.978Z,10.99
2017-06-14T01:43:42.634Z,11.02
2017-06-14T01:44:23.285Z,10.99
2017-06-14T01:45:03.941Z,10.99
2017-06-14T01:45:44.588Z,10.92
2017-06-14T01:46:27.192Z,10.92
2017-06-14T01:47:07.847Z,10.87
2017-06-14T01:47:48.417Z,10.9
2017-06-14T01:48:29.066Z,10.87
2017-06-14T01:49:09.755Z,10.87
2017-06-14T01:49:51.378Z,10.84
2017-06-14T01:50:31.977Z,10.9
2017-06-14T01:51:17.199Z,10.86
2017-06-14T01:51:57.799Z,10.9
2017-06-14T01:52:38.382Z,10.87
2017-06-14T01:53:18.977Z,10.89
2017-06-14T01:53:59.597Z,10.89
2017-06-14T01:54:40.179Z,10.87
2017-06-14T01:55:20.817Z,10.82
2017-06-14T01:56:01.452Z,10.9
2017-06-14T01:56:42.006Z,10.84
2017-06-14T01:57:23.642Z,10.86
2017-06-14T01:58:05.209Z,10.87
2017-06-14T01:58:45.804Z,10.89
2017-06-14T01:59:26.388Z,10.76
2017-06-14T02:00:08.076Z,10.75
2017-06-14T02:00:48.760Z,10.79
2017-06-14T02:01:30.362Z,10.79
2017-06-14T02:02:10.930Z,10.81
2017-06-14T02:02:51.597Z,10.82
2017-06-14T02:03:32.249Z,10.74
2017-06-14T02:04:12.891Z,10.79
2017-06-14T02:04:53.549Z,10.71
2017-06-14T02:05:36.153Z,10.74
2017-06-14T02:06:17.819Z,10.79
2017-06-14T02:06:59.517Z,10.74
2017-06-14T02:07:40.085Z,10.79
2017-06-14T02:08:20.684Z,10.76
2017-06-14T02:09:01.260Z,10.72
2017-06-14T02:09:41.902Z,10.76
2017-06-14T02:10:22.506Z,10.69
2017-06-14T02:11:04.947Z,10.67
2017-06-14T02:11:45.529Z,10.72
2017-06-14T02:12:26.151Z,10.69
2017-06-14T02:13:06.791Z,10.68
2017-06-14T02:13:47.373Z,10.68
2017-06-14T02:14:28.012Z,10.67
2017-06-14T02:15:08.645Z,10.67
2017-06-14T02:15:49.211Z,10.74
2017-06-14T02:16:29.876Z,10.71
2017-06-14T02:17:10.499Z,10.71
2017-06-14T02:17:51.083Z,10.72
2017-06-14T02:18:31.736Z,10.67
2017-06-14T02:19:17.312Z,10.64
2017-06-14T02:19:58.976Z,10.61
2017-06-14T02:20:41.582Z,10.64
2017-06-14T02:21:22.232Z,10.67
2017-06-14T02:22:02.882Z,10.61
2017-06-14T02:22:43.529Z,10.67
2017-06-14T02:23:24.192Z,10.72
2017-06-14T02:24:04.841Z,10.6
2017-06-14T02:24:45.492Z,10.67
2017-06-14T02:25:26.146Z,10.67
2017-06-14T02:26:11.709Z,10.61
2017-06-14T02:26:52.368Z,10.54
2017-06-14T02:27:33.025Z,10.64
2017-06-14T02:28:15.621Z,10.56
2017-06-14T02:28:56.279Z,10.6
2017-06-14T02:29:36.945Z,10.57
2017-06-14T02:30:17.585Z,10.54
2017-06-14T02:30:58.238Z,10.54
2017-06-14T02:31:38.884Z,10.54
2017-06-14T02:32:25.261Z,10.53
2017-06-14T02:33:06.887Z,10.54
2017-06-14T02:33:54.446Z,10.49
2017-06-14T02:34:35.009Z,10.48
2017-06-14T02:35:16.686Z,10.46
2017-06-14T02:35:57.271Z,10.48
2017-06-14T02:36:37.854Z,10.42
2017-06-14T02:37:18.490Z,10.46
2017-06-14T02:37:59.075Z,10.42
2017-06-14T02:38:39.654Z,10.38
2017-06-14T02:39:21.320Z,10.4
2017-06-14T02:40:01.889Z,10.41
2017-06-14T02:40:43.553Z,10.35
2017-06-14T02:41:24.133Z,10.4
2017-06-14T02:42:05.763Z,10.46
2017-06-14T02:42:46.342Z,10.35
2017-06-14T02:43:28.024Z,10.41
2017-06-14T02:44:08.698Z,10.42
2017-06-14T02:44:49.297Z,10.46
2017-06-14T02:45:29.847Z,10.46
2017-06-14T02:46:10.498Z,10.38
2017-06-14T02:46:51.103Z,10.38
2017-06-14T02:47:33.695Z,10.4
2017-06-14T02:48:14.348Z,10.38
2017-06-14T02:48:55.008Z,10.34
2017-06-14T02:49:35.725Z,10.28
2017-06-14T02:50:16.334Z,10.35
2017-06-14T02:50:56.971Z,10.38
2017-06-14T02:51:38.237Z,10.37
2017-06-14T02:52:18.895Z,10.38
2017-06-14T02:52:59.452Z,10.35
2017-06-14T02:53:40.056Z,10.33
2017-06-14T02:54:20.688Z,10.25
2017-06-14T02:55:01.258Z,10.31
2017-06-14T02:55:41.926Z,10.34
2017-06-14T02:56:22.542Z,10.3
2017-06-14T02:57:03.113Z,10.31
2017-06-14T02:57:45.710Z,10.37
2017-06-14T02:58:28.313Z,10.33
2017-06-14T02:59:08.954Z,10.33
2017-06-14T02:59:49.613Z,10.35
2017-06-14T03:00:31.288Z,10.16
2017-06-14T03:01:13.902Z,10.23
2017-06-14T03:01:56.497Z,10.17
2017-06-14T03:02:37.143Z,10.33
2017-06-14T03:03:17.778Z,10.16
2017-06-14T03:03:58.329Z,10.19
2017-06-14T03:04:40.943Z,10.19
2017-06-14T03:05:22.617Z,10.23
2017-06-14T03:06:03.179Z,10.3
2017-06-14T03:06:44.865Z,10.19
2017-06-14T03:07:26.517Z,10.22
2017-06-14T03:08:07.075Z,10.22
2017-06-14T03:08:47.748Z,10.23
2017-06-14T03:09:28.427Z,10.23
2017-06-14T03:10:14.964Z,10.2
2017-06-14T03:10:55.524Z,10.19
2017-06-14T03:11:36.167Z,10.19
2017-06-14T03:12:21.594Z,10.28
2017-06-14T03:13:06.989Z,10.23
2017-06-14T03:13:47.564Z,10.17
2017-06-14T03:14:28.214Z,10.15
2017-06-14T03:15:09.835Z,10.23
2017-06-14T03:15:50.527Z,10.16
2017-06-14T03:16:31.106Z,10.17
2017-06-14T03:17:11.743Z,10.15
2017-06-14T03:17:54.391Z,10.15
2017-06-14T03:18:36.068Z,10.13
2017-06-14T03:19:23.581Z,10.17
2017-06-14T03:20:04.228Z,10.26
2017-06-14T03:20:44.884Z,10.23
2017-06-14T03:21:27.478Z,10.26
2017-06-14T03:22:09.167Z,10.23
2017-06-14T03:22:50.775Z,10.26
2017-06-14T03:23:31.355Z,10.17
2017-06-14T03:24:13.021Z,10.3
2017-06-14T03:24:53.612Z,10.25
2017-06-14T03:25:34.209Z,10.31
2017-06-14T03:26:14.822Z,10.25
2017-06-14T03:26:57.481Z,10.22
2017-06-14T03:27:40.113Z,10.19
2017-06-14T03:28:25.579Z,10.15
2017-06-14T03:29:17.092Z,10.15
2017-06-14T03:29:57.750Z,10.16
2017-06-14T03:30:39.415Z,10.28
2017-06-14T03:31:20.073Z,10.23
2017-06-14T03:32:00.734Z,10.15
2017-06-14T03:32:41.321Z,10.3
2017-06-14T03:33:21.879Z,10.25
2017-06-14T03:34:13.283Z,10.23
2017-06-14T03:34:54.912Z,10.26
2017-06-14T03:35:37.558Z,10.3
2017-06-14T03:36:18.125Z,10.25
2017-06-14T03:36:59.807Z,10.19
2017-06-14T03:37:41.415Z,10.19
2017-06-14T03:38:27.959Z,10.17
2017-06-14T03:39:08.510Z,10.22
2017-06-14T03:39:49.181Z,10.2
2017-06-14T03:40:40.608Z,10.28
2017-06-14T03:41:21.207Z,10.23
2017-06-14T03:42:01.767Z,10.31
2017-06-14T03:42:42.437Z,10.28
2017-06-14T03:43:23.081Z,10.3
2017-06-14T03:44:08.232Z,10.31
2017-06-14T03:44:49.818Z,10.31
2017-06-14T03:45:32.400Z,10.31
2017-06-14T03:46:14.007Z,10.31
2017-06-14T03:46:54.743Z,10.31
2017-06-14T03:47:36.328Z,10.3
2017-06-14T03:48:18.000Z,10.34
2017-06-14T03:49:03.271Z,10.25
2017-06-14T03:49:44.935Z,10.25
2017-06-14T03:50:25.586Z,10.28
2017-06-14T03:51:10.750Z,10.31
2017-06-14T03:51:51.402Z,10.34
2017-06-14T03:52:38.818Z,10.35
2017-06-14T03:53:19.497Z,10.33
2017-06-14T03:54:01.137Z,10.33
2017-06-14T03:54:47.335Z,10.35
2017-06-14T03:55:27.969Z,10.38
2017-06-14T03:56:14.265Z,10.28
2017-06-14T03:56:55.437Z,10.4
2017-06-14T03:57:46.729Z,10.41
2017-06-14T03:58:27.314Z,10.35
2017-06-14T03:59:12.423Z,10.35
2017-06-14T03:59:52.985Z,10.42
2017-06-14T04:00:33.640Z,10.35
2017-06-14T04:01:15.252Z,10.4
2017-06-14T04:01:55.857Z,10.38
2017-06-14T04:02:36.413Z,10.4
2017-06-14T04:03:18.098Z,10.38
2017-06-14T04:03:59.713Z,10.38
2017-06-14T04:04:40.313Z,10.44
2017-06-14T04:05:20.885Z,10.46
2017-06-14T04:06:12.286Z,10.46
2017-06-14T04:06:52.877Z,10.42
2017-06-14T04:07:35.518Z,10.51
2017-06-14T04:08:17.202Z,10.46
2017-06-14T04:08:57.847Z,10.51
2017-06-14T04:09:38.499Z,10.49
2017-06-14T04:10:31.954Z,10.46
2017-06-14T04:11:17.523Z,10.48
2017-06-14T04:11:58.180Z,10.48
2017-06-14T04:12:38.756Z,10.54
2017-06-14T04:13:21.451Z,10.49
2017-06-14T04:14:02.126Z,10.48
2017-06-14T04:14:42.768Z,10.57
2017-06-14T04:15:25.360Z,10.59
2017-06-14T04:16:10.837Z,10.56
2017-06-14T04:16:53.499Z,10.57
2017-06-14T04:17:34.186Z,10.6
2017-06-14T04:18:20.605Z,10.64
2017-06-14T04:19:01.193Z,10.56
2017-06-14T04:19:41.743Z,10.69
2017-06-14T04:20:22.408Z,10.71
2017-06-14T04:21:14.569Z,10.72
2017-06-14T04:21:57.217Z,10.68
2017-06-14T04:22:37.775Z,10.64
2017-06-14T04:23:23.260Z,10.61
2017-06-14T04:24:03.900Z,10.68
2017-06-14T04:24:44.540Z,10.67
2017-06-14T04:25:25.213Z,10.68
2017-06-14T04:26:06.900Z,10.69
2017-06-14T04:26:47.524Z,10.68
2017-06-14T04:27:28.175Z,10.75
2017-06-14T04:28:09.853Z,10.69
2017-06-14T04:28:50.427Z,10.68
2017-06-14T04:29:31.088Z,10.67
2017-06-14T04:30:12.733Z,10.71
2017-06-14T04:30:53.328Z,10.74
2017-06-14T04:31:34.993Z,10.78
2017-06-14T04:32:17.661Z,10.79
2017-06-14T04:33:03.028Z,10.75
2017-06-14T04:33:54.430Z,10.81
2017-06-14T04:34:35.082Z,10.81
2017-06-14T04:35:20.450Z,10.9
2017-06-14T04:36:06.015Z,10.86
2017-06-14T04:36:52.506Z,10.94
2017-06-14T04:37:33.059Z,10.92
2017-06-14T04:38:13.733Z,11
2017-06-14T04:38:54.363Z,11
2017-06-14T04:39:34.965Z,10.97
2017-06-14T04:40:20.281Z,10.97
2017-06-14T06:12:39.138Z,14.26
2017-06-14T06:13:20.726Z,14.29
2017-06-14T06:14:01.276Z,14.28
2017-06-14T06:14:46.642Z,14.37
2017-06-14T06:15:28.288Z,14.32
2017-06-14T06:16:10.941Z,14.4
2017-06-14T06:16:51.558Z,14.45
2017-06-14T06:17:33.211Z,14.37
2017-06-14T06:18:13.839Z,14.37
2017-06-14T06:18:54.503Z,14.43
2017-06-14T06:19:35.153Z,14.48
2017-06-14T06:20:15.791Z,14.5
2017-06-14T06:20:56.344Z,14.44
2017-06-14T06:21:36.894Z,14.41
2017-06-14T06:22:19.490Z,14.45
2017-06-14T06:23:01.066Z,14.53
2017-06-14T06:23:42.638Z,14.58
2017-06-14T06:24:25.253Z,14.58
2017-06-14T06:25:05.791Z,14.59
2017-06-14T06:25:46.328Z,14.62
2017-06-14T06:26:33.851Z,14.63
2017-06-14T06:27:15.438Z,14.63
2017-06-14T06:27:55.984Z,14.58
2017-06-14T06:28:51.401Z,14.69
2017-06-14T06:29:31.832Z,14.65
2017-06-14T06:30:12.444Z,14.73
2017-06-14T06:30:54.064Z,14.7
2017-06-14T06:31:35.661Z,14.77
2017-06-14T06:32:16.186Z,14.73
2017-06-14T06:32:56.795Z,14.78
2017-06-14T06:33:39.435Z,14.72
2017-06-14T06:34:31.797Z,14.89
2017-06-14T06:35:12.312Z,14.85
2017-06-14T06:35:58.558Z,14.89
2017-06-14T06:36:39.142Z,14.88
2017-06-14T06:37:20.761Z,14.92
2017-06-14T06:38:01.275Z,14.91
2017-06-14T06:38:42.911Z,14.92
2017-06-14T06:39:24.548Z,14.94
2017-06-14T06:40:06.041Z,14.99
2017-06-14T06:40:51.717Z,14.94
2017-06-14T06:41:48.123Z,14.92
2017-06-14T06:42:30.747Z,14.92
2017-06-14T06:43:16.100Z,14.96
2017-06-14T06:43:56.654Z,14.96
2017-06-14T06:44:44.052Z,14.97
2017-06-14T06:45:24.617Z,14.94
2017-06-14T06:46:05.177Z,14.99
2017-06-14T06:46:47.766Z,14.96
2017-06-14T06:47:28.299Z,15.02
2017-06-14T06:48:09.895Z,15
2017-06-14T06:48:50.428Z,15.03
2017-06-14T06:49:30.993Z,15
2017-06-14T06:50:13.616Z,15.09
2017-06-14T06:50:54.125Z,15.1
2017-06-14T06:51:35.758Z,15.07
2017-06-14T06:52:16.368Z,15.06
2017-06-14T06:52:56.894Z,15.07
2017-06-14T06:53:48.366Z,15.11
2017-06-14T06:54:29.988Z,15.18
2017-06-14T06:55:10.509Z,15.07
2017-06-14T06:55:51.097Z,15.11
2017-06-14T06:56:38.352Z,15.15
2017-06-14T06:57:21.019Z,15.24
2017-06-14T06:58:01.554Z,15.29
2017-06-14T06:58:43.161Z,15.28
2017-06-14T06:59:34.397Z,15.42
2017-06-14T07:00:20.836Z,15.4
2017-06-14T07:01:01.370Z,15.44
2017-06-14T07:01:46.695Z,15.43
2017-06-14T07:02:27.349Z,15.49
2017-06-14T07:03:08.112Z,15.51
2017-06-14T07:03:48.607Z,15.49
2017-06-14T07:04:29.284Z,15.52
2017-06-14T07:05:20.392Z,15.52
2017-06-14T07:06:07.868Z,15.59
2017-06-14T07:06:48.406Z,15.62
2017-06-14T07:07:35.676Z,15.67
2017-06-14T07:08:16.358Z,15.73
2017-06-14T07:08:56.993Z,15.77
2017-06-14T07:09:37.610Z,15.79
2017-06-14T07:12:35.679Z,16.01
2017-06-14T07:13:23.245Z,16
2017-06-14T07:14:04.832Z,16.05
2017-06-14T07:14:47.427Z,16.09
2017-06-14T07:15:30.024Z,16.12
2017-06-14T07:16:15.194Z,16.15
2017-06-14T07:16:56.763Z,16.15
2017-06-14T07:17:48.277Z,16.1
2017-06-14T07:18:28.821Z,16.13
2017-06-14T07:19:10.401Z,16.16
2017-06-14T07:19:51.053Z,16.1
2017-06-14T07:20:32.648Z,16.16
2017-06-14T07:21:15.221Z,16.16
2017-06-14T07:22:02.733Z,16.13
2017-06-14T07:22:43.299Z,16.12
2017-06-14T07:23:23.832Z,16.16
2017-06-14T07:24:09.100Z,16.2
2017-06-14T07:24:50.779Z,16.17
2017-06-14T07:25:31.300Z,16.2
2017-06-14T07:26:11.902Z,16.17
2017-06-14T07:26:57.236Z,16.16
2017-06-14T07:27:37.773Z,16.15
2017-06-14T07:28:29.022Z,16.12
2017-06-14T07:29:10.610Z,16.13
2017-06-14T07:29:52.145Z,16.2
2017-06-14T07:30:45.589Z,16.16
2017-06-14T07:31:31.078Z,16.23
2017-06-14T07:32:17.592Z,16.33
2017-06-14T07:32:59.250Z,16.16
2017-06-14T07:58:38.276Z,16.49
2017-06-14T07:59:18.864Z,16.49
2017-06-14T08:00:01.420Z,16.43
2017-06-14T08:00:47.840Z,16.46
2017-06-14T08:01:28.369Z,16.49
2017-06-14T08:02:10.001Z,16.51
2017-06-14T08:02:51.612Z,16.51
2017-06-14T08:03:32.196Z,16.49
2017-06-14T08:04:12.745Z,16.53
2017-06-14T08:04:58.556Z,16.5
2017-06-14T08:05:39.168Z,16.54
2017-06-14T08:06:19.719Z,16.54
2017-06-14T08:07:00.273Z,16.6
2017-06-14T08:07:40.825Z,16.6
2017-06-14T08:08:21.399Z,16.54
2017-06-14T08:09:03.018Z,16.56
2017-06-14T08:09:43.549Z,16.58
2017-06-14T08:10:26.097Z,16.64
2017-06-14T08:11:06.924Z,16.66
2017-06-14T08:11:47.540Z,16.66
2017-06-14T08:12:28.130Z,16.66
2017-06-14T08:13:08.644Z,16.71
2017-06-14T08:13:49.282Z,16.68
2017-06-14T08:14:29.858Z,16.71
2017-06-14T08:15:10.462Z,16.64
2017-06-14T08:15:50.982Z,16.71
2017-06-14T08:16:32.596Z,16.69
2017-06-14T08:17:19.956Z,16.68
2017-06-14T08:18:01.583Z,16.72
2017-06-14T08:18:42.142Z,16.71
2017-06-14T08:19:23.701Z,16.66
2017-06-14T08:20:04.247Z,16.65
2017-06-14T08:20:46.873Z,16.69
2017-06-14T08:21:27.426Z,16.74
2017-06-14T08:22:10.071Z,16.74
2017-06-14T08:22:51.631Z,16.74
2017-06-14T08:23:32.300Z,16.75
2017-06-14T08:24:12.850Z,16.87
2017-06-14T08:24:55.435Z,16.81
2017-06-14T08:25:41.009Z,16.9
2017-06-14T08:26:22.582Z,16.94
2017-06-14T08:27:04.150Z,16.84
2017-06-14T08:27:44.672Z,16.89
2017-06-14T08:28:26.243Z,17.01
2017-06-14T08:29:11.701Z,16.89
2017-06-14T08:29:53.264Z,17.02
2017-06-14T08:30:33.888Z,16.99
2017-06-14T08:31:14.474Z,17.01
2017-06-14T08:31:55.147Z,16.96
2017-06-14T08:32:35.775Z,16.93
2017-06-14T08:33:17.353Z,16.99
2017-06-14T08:34:02.645Z,16.99
2017-06-14T08:34:45.433Z,17.04
2017-06-14T08:35:26.064Z,17.01
2017-06-14T08:36:08.694Z,16.97
2017-06-14T08:36:49.341Z,17.04
2017-06-14T08:37:40.602Z,17.08
2017-06-14T08:38:21.186Z,17.08
2017-06-14T08:39:07.731Z,17.11
2017-06-14T08:39:48.511Z,17.09
2017-06-14T08:40:29.361Z,17.11
2017-06-14T08:41:14.728Z,17.12
2017-06-14T08:41:56.520Z,17.12
2017-06-14T08:42:37.249Z,17.29
2017-06-14T08:43:17.914Z,17.2
2017-06-14T08:44:03.478Z,17.3
2017-06-14T08:44:46.199Z,17.23
2017-06-14T08:45:26.765Z,17.38
2017-06-14T08:46:13.166Z,17.38
2017-06-14T08:46:58.490Z,17.41
2017-06-14T08:47:43.860Z,17.39
2017-06-14T08:48:24.461Z,17.48
2017-06-14T08:55:48.054Z,17.56
2017-06-14T08:56:28.628Z,17.57
2017-06-14T08:57:10.268Z,17.59
2017-06-14T08:57:50.940Z,17.59
2017-06-14T08:58:31.539Z,17.65
2017-06-14T08:59:23.046Z,17.63
2017-06-14T09:00:04.724Z,17.7
2017-06-14T10:24:53.302Z,20.34
2017-06-14T10:25:33.886Z,20.29
2017-06-14T10:26:14.454Z,20.39
2017-06-14T10:26:55.079Z,20.39
2017-06-14T10:27:35.730Z,20.34
2017-06-14T10:28:16.381Z,20.37
2017-06-14T10:28:56.959Z,20.4
2017-06-14T10:29:37.564Z,20.5
2017-06-14T10:30:18.143Z,20.47
2017-06-14T10:30:58.767Z,20.48
2017-06-14T10:31:39.339Z,20.62
2017-06-14T10:32:19.966Z,20.63
2017-06-14T10:33:00.564Z,20.65
2017-06-14T10:33:41.144Z,20.66
2017-06-14T10:34:21.849Z,20.72
2017-06-14T10:35:02.504Z,20.7
2017-06-14T10:35:43.143Z,20.77
2017-06-14T10:36:23.803Z,20.75
2017-06-14T10:37:04.402Z,20.81
2017-06-14T10:37:45.070Z,20.82
2017-06-14T10:38:26.673Z,20.74
2017-06-14T10:39:07.260Z,20.77
2017-06-14T10:39:47.819Z,20.87
2017-06-14T10:40:28.454Z,20.97
2017-06-14T10:41:09.075Z,20.97
2017-06-14T10:41:49.665Z,21
2017-06-14T10:42:30.289Z,21.03
2017-06-14T10:43:10.964Z,21.05
2017-06-14T10:43:51.620Z,21.05
2017-06-14T10:44:32.277Z,21.11
2017-06-14T10:45:15.656Z,21.12
2017-06-14T10:46:10.953Z,21.03
2017-06-14T10:46:56.411Z,21.09
2017-06-14T10:47:37.059Z,21.18
2017-06-14T11:11:22.623Z,21.89
2017-06-14T11:12:03.211Z,21.82
2017-06-14T11:12:49.783Z,21.75
2017-06-14T11:13:30.435Z,21.75
2017-06-14T11:14:11.077Z,21.72
2017-06-14T11:15:06.279Z,21.72
2017-06-14T11:15:52.765Z,21.67
2017-06-14T11:16:33.425Z,21.73
2017-06-14T11:17:19.806Z,21.72
2017-06-14T11:18:15.310Z,21.72
2017-06-14T11:19:00.749Z,21.75
2017-06-14T11:19:54.306Z,21.79
2017-06-14T11:20:40.801Z,21.75
2017-06-14T11:21:23.422Z,21.85
2017-06-14T11:33:49.086Z,22.11
2017-06-14T11:34:29.659Z,22.15
2017-06-14T12:21:19.778Z,23.2
2017-06-14T12:22:11.344Z,23.24
2017-06-14T12:22:56.519Z,23.25
2017-06-14T12:23:43.035Z,23.17
2017-06-14T12:24:25.633Z,23.13
2017-06-14T12:57:20.397Z,23.61
2017-06-14T12:58:01.966Z,23.66
2017-06-14T12:58:43.571Z,23.61
2017-06-14T12:59:24.145Z,23.62
2017-06-14T13:00:09.310Z,23.47
2017-06-14T13:01:02.532Z,23.51
2017-06-14T13:01:43.110Z,23.5
2017-06-14T13:02:29.275Z,23.56
2017-06-14T13:03:09.918Z,23.61
2017-06-14T13:03:50.596Z,23.56
2017-06-14T13:04:31.249Z,23.61
2017-06-14T13:05:18.764Z,23.66
2017-06-14T13:05:59.412Z,23.66
2017-06-14T13:06:43.751Z,23.8
2017-06-14T13:07:39.939Z,23.88
2017-06-14T13:08:20.661Z,23.91
2017-06-14T13:09:15.826Z,24.02
2017-06-14T13:09:56.511Z,24.05
2017-06-14T13:10:39.153Z,24.1
2017-06-14T13:11:20.654Z,24.26
2017-06-14T13:12:06.822Z,24.23
2017-06-14T13:12:47.424Z,24.33
2017-06-14T13:13:34.978Z,24.3
2017-06-14T13:14:15.560Z,24.38
2017-06-14T13:15:01.832Z,24.38
2017-06-14T13:15:43.444Z,24.47
2017-06-14T13:49:28.402Z,24.38
2017-06-14T13:50:09.021Z,24.36
2017-06-14T13:50:50.600Z,24.26
2017-06-14T13:51:43.001Z,24.33
2017-06-14T13:52:24.594Z,24.32
2017-06-14T13:53:06.184Z,24.29
2017-06-14T13:53:59.498Z,24.29
2017-06-14T13:54:42.089Z,24.29
2017-06-14T13:55:34.473Z,24.4
2017-06-14T13:56:16.064Z,24.45
2017-06-14T13:56:57.650Z,24.47
2017-06-14T14:00:44.094Z,24.61
2017-06-14T14:01:25.697Z,24.5
2017-06-14T14:02:18.287Z,24.53
2017-06-14T14:03:00.852Z,24.5
2017-06-14T14:03:43.442Z,24.5
2017-06-14T14:04:26.014Z,24.38
2017-06-14T14:05:07.599Z,24.32
2017-06-14T14:05:52.794Z,24.28
2017-06-14T14:06:45.257Z,24.23
2017-06-14T14:07:25.854Z,24.17
2017-06-14T14:08:06.462Z,24.11
2017-06-14T14:08:47.039Z,24.13
2017-06-14T14:09:29.650Z,24.1
2017-06-14T14:10:25.769Z,24.11
2017-06-14T14:11:08.333Z,24.11
2017-06-14T14:11:50.924Z,24.14
2017-06-14T14:12:32.470Z,24.06
2017-06-14T14:13:17.758Z,24.11
2017-06-14T14:13:58.340Z,24.01
2017-06-14T14:14:39.923Z,24.11
2017-06-14T14:15:20.496Z,24.14
2017-06-14T14:16:01.072Z,24.16
2017-06-14T14:16:42.662Z,24.2
2017-06-14T14:17:29.755Z,24.3
2017-06-14T14:18:10.326Z,24.36
2017-06-14T14:18:56.765Z,24.51
2017-06-14T14:19:42.271Z,24.6
2017-06-14T14:20:23.850Z,24.66
2017-06-14T14:21:10.263Z,24.77
2017-06-14T14:21:50.830Z,24.76
2017-06-14T14:22:42.273Z,24.85
2017-06-14T14:23:22.840Z,24.85
2017-06-14T14:24:09.262Z,24.89
2017-06-14T14:25:02.780Z,24.96
2017-06-14T14:25:45.378Z,25.03
2017-06-14T14:26:25.939Z,25.11
2017-06-14T14:27:06.523Z,25.07
2017-06-14T14:27:48.117Z,25.18
2017-06-14T14:28:30.688Z,25.26
2017-06-14T14:29:17.273Z,25.21
2017-06-14T14:30:03.457Z,25.17
2017-06-14T14:30:44.004Z,25.13
2017-06-14T14:31:29.282Z,25.18
2017-06-14T14:32:09.850Z,25.25
2017-06-14T14:32:50.406Z,25.25
2017-06-14T14:33:35.775Z,25.26
2017-06-14T14:34:21.954Z,25.28
2017-06-14T14:35:13.451Z,25.28
2017-06-14T14:36:04.956Z,25.22
2017-06-14T14:36:46.531Z,25.21
2017-06-14T14:37:27.095Z,25.25
2017-06-14T14:38:14.456Z,25.23
2017-06-14T14:38:59.956Z,25.28
2017-06-14T14:39:40.552Z,25.22
2017-06-14T14:40:21.110Z,25.25
2017-06-14T14:41:12.574Z,25.28
2017-06-14T14:41:54.177Z,25.23
2017-06-14T14:42:34.765Z,25.21
2017-06-14T14:43:26.272Z,25.28
2017-06-14T14:44:11.565Z,25.29
2017-06-14T14:44:54.151Z,25.31
2017-06-14T14:45:34.795Z,25.28
2017-06-14T14:46:17.306Z,25.33
2017-06-14T14:47:02.584Z,25.31
2017-06-14T14:47:43.180Z,25.33
2017-06-14T14:48:23.757Z,25.29
2017-06-14T14:49:10.275Z,25.26
2017-06-14T14:49:50.873Z,25.18
2017-06-14T14:50:31.448Z,25.11
2017-06-14T14:51:13.020Z,25.13
2017-06-14T14:51:54.608Z,25.13
2017-06-14T14:52:35.179Z,25.01
2017-06-14T14:53:20.300Z,25.06
2017-06-14T14:54:01.879Z,25.01
2017-06-14T14:54:42.460Z,24.96
2017-06-14T14:55:33.859Z,25.01
2017-06-14T14:56:21.277Z,25.03
2017-06-14T14:57:02.851Z,25.03
2017-06-14T14:57:44.450Z,25.13
2017-06-14T14:58:25.083Z,25.16
2017-06-14T14:59:05.654Z,25.1
2017-06-14T14:59:50.802Z,25.17
2017-06-14T15:00:31.378Z,25.17
2017-06-14T15:01:11.949Z,25.29
2017-06-14T15:01:52.527Z,25.22
2017-06-14T15:02:37.909Z,25.26
2017-06-14T15:03:20.479Z,25.16
2017-06-14T15:04:11.807Z,25.13
2017-06-14T15:04:53.382Z,25.11
2017-06-14T15:05:36.025Z,25.01
2017-06-14T15:06:17.627Z,25.06
2017-06-14T15:07:03.818Z,24.98